Time;durP1;ratioP1;P1;durP2;ratioP2;P2;SDS_P1;SDS_P2;PMS_P1;PMS_P2;Temp;Humidity;BMP_temperature;BMP_pressure;BME280_temperature;BME280_humidity;BME280_pressure;Samples;Min_cycle;Max_cycle;Signal;HPM_P1;HPM_P2
2023/05/16 00:00:36;;;;;;;6.97;5.28;;;14.90;80.00;;;;;;1918470;75;21471;-52
2023/05/16 00:03:06;;;;;;;5.70;5.20;;;15.00;80.30;;;;;;1918427;75;21458;-52
2023/05/16 00:05:35;;;;;;;8.25;5.28;;;15.00;80.50;;;;;;1918436;75;21126;-51
2023/05/16 00:08:05;;;;;;;7.95;5.17;;;15.00;80.90;;;;;;1918454;75;21047;-52
2023/05/16 00:10:34;;;;;;;6.62;4.75;;;15.00;81.00;;;;;;1918378;75;21019;-51
2023/05/16 00:13:03;;;;;;;7.47;5.30;;;15.00;81.10;;;;;;1918552;75;21126;-54
2023/05/16 00:15:32;;;;;;;7.90;5.50;;;15.00;81.20;;;;;;1918468;75;21003;-51
2023/05/16 00:18:01;;;;;;;8.48;5.25;;;15.00;81.30;;;;;;1918464;75;21022;-50
2023/05/16 00:20:30;;;;;;;7.33;6.05;;;14.90;81.40;;;;;;1918480;75;21088;-52
2023/05/16 00:23:00;;;;;;;7.17;4.87;;;14.90;81.40;;;;;;1918524;74;21120;-53
2023/05/16 00:25:29;;;;;;;12.82;5.15;;;14.90;81.50;;;;;;1918457;75;21076;-50
2023/05/16 00:27:58;;;;;;;5.87;5.17;;;14.80;81.70;;;;;;1918528;75;21066;-52
2023/05/16 00:30:27;;;;;;;7.40;5.87;;;14.80;81.80;;;;;;1918410;75;21082;-53
2023/05/16 00:32:57;;;;;;;7.87;5.12;;;14.80;82.10;;;;;;1922392;74;21181;-53
2023/05/16 00:35:26;;;;;;;6.75;4.92;;;14.70;82.20;;;;;;1925496;74;20983;-54
2023/05/16 00:37:55;;;;;;;5.92;5.03;;;14.70;82.40;;;;;;1925440;74;21863;-52
2023/05/16 00:40:25;;;;;;;5.67;4.90;;;14.70;82.30;;;;;;1925477;74;21110;-51
2023/05/16 00:42:54;;;;;;;8.45;5.05;;;14.70;82.40;;;;;;1925351;74;21160;-53
2023/05/16 00:45:23;;;;;;;7.67;5.33;;;14.70;82.70;;;;;;1924810;74;21078;-51
2023/05/16 00:47:52;;;;;;;6.97;5.08;;;14.60;82.60;;;;;;1924890;74;21082;-53
2023/05/16 00:50:22;;;;;;;6.95;4.97;;;14.60;82.80;;;;;;1924754;74;21077;-53
2023/05/16 00:52:51;;;;;;;5.67;5.05;;;14.60;82.70;;;;;;1924923;74;21233;-53
2023/05/16 00:55:21;;;;;;;5.25;4.65;;;14.50;82.90;;;;;;1924903;74;21098;-51
2023/05/16 00:57:51;;;;;;;5.95;5.20;;;14.50;83.20;;;;;;1924837;74;21022;-54
2023/05/16 01:00:20;;;;;;;6.40;5.17;;;14.40;83.30;;;;;;1924822;74;21257;-54
2023/05/16 01:02:52;;;;;;;6.08;4.50;;;14.40;83.50;;;;;;1924750;74;21199;-50
2023/05/16 01:05:21;;;;;;;8.10;4.70;;;14.40;83.70;;;;;;1924837;74;21130;-52
2023/05/16 01:07:50;;;;;;;7.37;4.95;;;14.40;83.80;;;;;;1924902;74;21139;-50
2023/05/16 01:10:19;;;;;;;5.90;4.42;;;14.40;83.60;;;;;;1924911;74;21034;-51
2023/05/16 01:13:15;;;;;;;11.50;5.75;;;14.30;83.70;;;;;;1924821;74;21047;-51
2023/05/16 01:15:45;;;;;;;;;;;14.30;83.90;;;;;;1927463;74;21581;-51
2023/05/16 01:18:29;;;;;;;6.30;5.17;;;14.30;83.80;;;;;;1924013;74;20590;-51
2023/05/16 01:21:02;;;;;;;10.23;4.67;;;14.30;83.50;;;;;;1924624;74;21015;-52
2023/05/16 01:23:45;;;;;;;6.92;5.60;;;14.20;83.50;;;;;;1923617;74;21074;-52
2023/05/16 01:26:23;;;;;;;6.33;4.92;;;14.20;83.70;;;;;;1924118;74;21094;-51
2023/05/16 01:28:53;;;;;;;6.58;5.03;;;14.10;83.80;;;;;;1924600;74;21441;-52
2023/05/16 01:31:23;;;;;;;6.42;4.85;;;14.20;84.00;;;;;;1924835;74;21074;-53
2023/05/16 01:33:52;;;;;;;6.95;5.12;;;14.10;84.10;;;;;;1924875;74;21125;-53
2023/05/16 01:36:24;;;;;;;7.15;5.08;;;14.10;84.00;;;;;;1924935;74;21146;-50
2023/05/16 01:39:15;;;;;;;5.85;4.65;;;14.10;84.10;;;;;;1923531;74;21078;-53
2023/05/16 01:42:11;;;;;;;5.45;4.83;;;14.10;84.20;;;;;;1924927;74;21088;-53
2023/05/16 01:44:51;;;;;;;5.87;5.05;;;14.00;84.20;;;;;;1910461;74;21158;-51
2023/05/16 01:47:25;;;;;;;13.85;5.33;;;14.00;84.40;;;;;;1855714;76;21153;-52
2023/05/16 01:49:57;;;;;;;6.90;5.28;;;14.00;84.80;;;;;;1878272;76;21454;-51
2023/05/16 01:52:32;;;;;;;7.92;4.90;;;13.90;84.80;;;;;;1876265;76;21695;-52
2023/05/16 01:55:04;;;;;;;10.88;4.80;;;13.90;84.90;;;;;;1863589;76;21099;-51
2023/05/16 01:57:34;;;;;;;17.55;5.80;;;13.90;85.00;;;;;;1878105;76;21084;-51
2023/05/16 02:00:03;;;;;;;6.35;4.95;;;13.90;85.20;;;;;;1878129;76;21203;-52
2023/05/16 02:02:34;;;;;;;5.62;4.72;;;13.90;85.20;;;;;;1876239;76;21115;-54
2023/05/16 02:05:04;;;;;;;9.83;4.97;;;13.90;85.50;;;;;;1878148;76;21146;-51
2023/05/16 02:07:34;;;;;;;7.42;4.92;;;13.90;85.70;;;;;;1878046;76;21136;-51
2023/05/16 02:10:03;;;;;;;11.90;5.00;;;13.90;85.70;;;;;;1878071;76;21095;-50
2023/05/16 02:12:32;;;;;;;6.85;4.65;;;13.90;85.90;;;;;;1878180;76;21007;-54
2023/05/16 02:15:01;;;;;;;8.90;4.97;;;13.90;86.10;;;;;;1878087;76;21164;-54
2023/05/16 02:17:31;;;;;;;5.42;4.67;;;13.90;85.90;;;;;;1878075;76;21230;-54
2023/05/16 02:20:05;;;;;;;9.25;5.30;;;14.00;86.10;;;;;;1878155;76;21135;-53
2023/05/16 02:22:30;;;;;;;7.70;5.10;;;14.00;86.40;;;;;;1877437;76;21161;-53
2023/05/16 02:25:02;;;;;;;8.73;4.75;;;14.20;86.40;;;;;;1848633;76;21059;-52
2023/05/16 02:27:31;;;;;;;6.12;5.37;;;14.30;86.10;;;;;;1878295;76;21107;-53
2023/05/16 02:30:01;;;;;;;7.28;4.28;;;14.50;86.10;;;;;;1878133;76;21035;-52
2023/05/16 02:32:30;;;;;;;7.55;4.58;;;14.80;85.50;;;;;;1878051;76;21078;-52
2023/05/16 02:34:59;;;;;;;8.48;4.30;;;15.00;84.80;;;;;;1872157;76;21176;-53
2023/05/16 02:37:29;;;;;;;8.25;6.15;;;15.20;84.00;;;;;;1871398;76;21086;-52
2023/05/16 02:39:58;;;;;;;10.28;4.87;;;15.30;83.20;;;;;;1871539;77;21031;-50
2023/05/16 02:42:28;;;;;;;7.95;4.80;;;15.30;83.00;;;;;;1871424;77;21019;-52
2023/05/16 02:44:57;;;;;;;9.63;4.90;;;15.20;83.10;;;;;;1871376;77;21027;-53
2023/05/16 02:47:27;;;;;;;11.73;5.15;;;15.10;83.40;;;;;;1871367;76;21043;-51
2023/05/16 02:49:56;;;;;;;6.28;4.75;;;15.00;83.60;;;;;;1871333;77;21486;-52
2023/05/16 02:52:25;;;;;;;19.45;6.20;;;15.00;83.90;;;;;;1871377;77;21031;-52
2023/05/16 02:54:55;;;;;;;7.78;4.75;;;15.00;84.10;;;;;;1871520;77;21019;-51
2023/05/16 02:57:24;;;;;;;7.45;4.40;;;15.10;84.10;;;;;;1871389;76;21016;-51
2023/05/16 02:59:53;;;;;;;6.08;4.50;;;15.10;84.00;;;;;;1871398;77;21043;-53
2023/05/16 03:02:23;;;;;;;8.15;4.72;;;15.10;83.90;;;;;;1871388;77;21039;-52
2023/05/16 03:04:52;;;;;;;5.67;4.22;;;15.10;83.80;;;;;;1871458;77;21089;-52
2023/05/16 03:07:22;;;;;;;8.80;5.35;;;15.10;84.00;;;;;;1871347;77;21031;-51
2023/05/16 03:09:51;;;;;;;10.08;5.22;;;15.10;84.10;;;;;;1871312;77;21039;-52
2023/05/16 03:12:20;;;;;;;8.00;4.78;;;15.20;84.20;;;;;;1871468;77;21035;-52
2023/05/16 03:14:50;;;;;;;9.10;5.05;;;15.20;84.30;;;;;;1871462;77;21101;-50
2023/05/16 03:17:19;;;;;;;9.08;5.72;;;15.30;84.40;;;;;;1871378;77;21011;-52
2023/05/16 03:19:49;;;;;;;8.80;5.53;;;15.40;84.40;;;;;;1871370;77;21057;-50
2023/05/16 03:22:18;;;;;;;6.95;4.75;;;15.50;84.30;;;;;;1871471;77;21137;-53
2023/05/16 03:24:47;;;;;;;7.53;5.03;;;15.60;84.30;;;;;;1871379;77;21003;-52
2023/05/16 03:27:17;;;;;;;11.08;5.10;;;15.60;84.30;;;;;;1871351;77;21023;-51
2023/05/16 03:29:46;;;;;;;4.80;4.20;;;15.70;84.20;;;;;;1871349;77;21079;-51
2023/05/16 03:32:15;;;;;;;5.87;4.30;;;15.70;84.00;;;;;;1871433;77;21145;-52
2023/05/16 03:34:45;;;;;;;6.37;4.08;;;15.60;84.00;;;;;;1871290;77;21039;-51
2023/05/16 03:37:15;;;;;;;4.50;4.05;;;15.60;84.20;;;;;;1871456;77;21125;-52
2023/05/16 03:39:44;;;;;;;7.12;4.00;;;15.70;84.50;;;;;;1871357;77;21019;-51
2023/05/16 03:42:13;;;;;;;9.45;4.58;;;15.90;84.60;;;;;;1871399;77;21089;-52
2023/05/16 03:44:42;;;;;;;6.53;4.55;;;16.10;84.50;;;;;;1871347;77;21081;-52
2023/05/16 03:47:12;;;;;;;6.45;4.60;;;16.30;84.10;;;;;;1871446;77;21027;-50
2023/05/16 03:49:41;;;;;;;8.90;4.95;;;16.50;83.70;;;;;;1871280;77;21098;-51
2023/05/16 03:52:10;;;;;;;10.18;5.15;;;16.60;83.50;;;;;;1871343;76;21074;-50
2023/05/16 03:54:40;;;;;;;13.10;5.75;;;16.70;83.20;;;;;;1871330;77;21117;-52
2023/05/16 03:57:09;;;;;;;8.18;5.15;;;16.80;83.00;;;;;;1871442;77;21089;-51
2023/05/16 03:59:38;;;;;;;10.08;5.58;;;16.90;82.80;;;;;;1871438;77;21085;-50
2023/05/16 04:02:07;;;;;;;11.78;5.65;;;17.00;82.90;;;;;;1871322;76;21046;-50
2023/05/16 04:04:36;;;;;;;11.63;5.17;;;17.10;82.90;;;;;;1871327;76;21097;-50
2023/05/16 04:07:06;;;;;;;8.98;5.30;;;17.20;82.90;;;;;;1871305;77;21059;-51
2023/05/16 04:09:35;;;;;;;13.28;5.58;;;17.30;82.70;;;;;;1871298;77;21077;-51
2023/05/16 04:12:05;;;;;;;15.95;5.75;;;17.30;82.80;;;;;;1871434;77;21050;-51
2023/05/16 04:14:38;;;;;;;10.93;5.47;;;17.40;82.80;;;;;;1871268;77;21051;-50
2023/05/16 04:17:07;;;;;;;13.88;9.85;;;17.50;82.70;;;;;;1871318;77;21050;-50
2023/05/16 04:19:37;;;;;;;10.78;5.65;;;17.50;82.60;;;;;;1871503;77;21043;-51
2023/05/16 04:22:06;;;;;;;10.70;5.60;;;17.60;82.80;;;;;;1871496;77;21101;-49
2023/05/16 04:24:35;;;;;;;7.72;5.67;;;17.70;82.70;;;;;;1871379;77;21039;-51
2023/05/16 04:27:07;;;;;;;11.53;5.95;;;17.80;82.70;;;;;;1871366;76;21039;-50
2023/05/16 04:29:36;;;;;;;15.20;6.95;;;17.80;82.60;;;;;;1871358;76;21446;-49
2023/05/16 04:32:06;;;;;;;17.77;9.43;;;17.90;82.70;;;;;;1871424;77;21031;-52
2023/05/16 04:34:36;;;;;;;13.40;7.40;;;18.00;82.80;;;;;;1869462;76;21063;-49
2023/05/16 04:37:06;;;;;;;17.95;9.30;;;18.00;82.50;;;;;;1905403;75;21034;-52
2023/05/16 04:39:36;;;;;;;33.28;12.68;;;18.10;82.40;;;;;;1905435;74;21077;-52
2023/05/16 04:42:05;;;;;;;35.20;17.25;;;18.20;82.30;;;;;;1905550;75;21008;-50
2023/05/16 04:44:35;;;;;;;35.80;15.38;;;18.30;82.30;;;;;;1905431;75;21036;-50
2023/05/16 04:47:04;;;;;;;40.30;14.23;;;18.50;82.00;;;;;;1905431;75;21005;-49
2023/05/16 04:49:33;;;;;;;33.55;15.80;;;18.60;81.70;;;;;;1905411;74;21051;-52
2023/05/16 04:52:02;;;;;;;39.95;17.57;;;18.70;81.00;;;;;;1905395;75;21128;-49
2023/05/16 04:54:32;;;;;;;41.75;20.35;;;18.80;80.60;;;;;;1905533;75;21024;-51
2023/05/16 04:57:01;;;;;;;46.08;21.27;;;18.90;80.30;;;;;;1905373;75;21051;-52
2023/05/16 04:59:30;;;;;;;38.95;18.90;;;18.80;79.90;;;;;;1905370;75;21040;-50
2023/05/16 05:01:59;;;;;;;45.58;21.90;;;18.80;79.80;;;;;;1905415;75;21007;-49
2023/05/16 05:04:29;;;;;;;44.77;19.25;;;18.80;79.80;;;;;;1905498;75;21094;-51
2023/05/16 05:06:58;;;;;;;39.18;16.93;;;18.80;79.80;;;;;;1905410;75;21085;-50
2023/05/16 05:09:28;;;;;;;32.50;15.60;;;18.80;79.70;;;;;;1905393;75;21010;-49
2023/05/16 05:11:57;;;;;;;29.80;12.90;;;18.80;80.00;;;;;;1905399;74;20983;-50
2023/05/16 05:14:26;;;;;;;22.60;10.48;;;18.80;80.00;;;;;;1905450;75;21073;-49
2023/05/16 05:16:55;;;;;;;22.17;8.95;;;18.90;79.80;;;;;;1905418;75;21046;-51
2023/05/16 05:19:24;;;;;;;21.35;8.13;;;18.90;80.00;;;;;;1905492;75;21084;-49
2023/05/16 05:21:54;;;;;;;8.98;5.15;;;19.00;80.30;;;;;;1905504;75;21102;-51
2023/05/16 05:24:23;;;;;;;13.53;4.62;;;19.10;80.50;;;;;;1905496;75;21011;-51
2023/05/16 05:26:52;;;;;;;6.58;4.35;;;19.10;80.30;;;;;;1905326;75;21133;-50
2023/05/16 05:29:21;;;;;;;8.63;4.10;;;19.20;80.00;;;;;;1905280;75;21097;-49
2023/05/16 05:31:51;;;;;;;6.03;3.20;;;19.30;79.10;;;;;;1905278;75;21016;-52
2023/05/16 05:34:20;;;;;;;7.47;3.60;;;19.40;78.50;;;;;;1905368;75;21102;-53
2023/05/16 05:36:49;;;;;;;6.55;4.08;;;19.50;78.10;;;;;;1922279;74;21046;-51
2023/05/16 05:39:19;;;;;;;4.87;3.33;;;19.60;78.10;;;;;;1924805;74;21039;-50
2023/05/16 05:41:48;;;;;;;8.73;3.72;;;19.70;77.60;;;;;;1924879;74;21014;-49
2023/05/16 05:44:17;;;;;;;8.73;3.40;;;19.80;77.10;;;;;;1924778;74;21077;-49
2023/05/16 05:46:46;;;;;;;7.65;3.30;;;19.90;76.60;;;;;;1924719;74;20982;-49
2023/05/16 05:49:16;;;;;;;4.25;3.33;;;20.00;76.10;;;;;;1924733;74;20978;-49
2023/05/16 05:51:45;;;;;;;4.35;3.40;;;20.10;75.80;;;;;;1924762;74;21014;-49
2023/05/16 05:54:14;;;;;;;5.30;3.27;;;20.20;75.60;;;;;;1924795;74;21441;-52
2023/05/16 05:56:43;;;;;;;5.45;3.22;;;20.30;75.30;;;;;;1924758;74;21014;-51
2023/05/16 05:59:13;;;;;;;5.67;2.50;;;20.30;75.30;;;;;;1924810;74;21073;-50
2023/05/16 06:01:51;;;;;;;6.25;2.98;;;20.50;74.50;;;;;;1924711;74;21409;-50
2023/05/16 06:04:13;;;;;;;7.20;3.87;;;20.60;73.60;;;;;;1922410;74;21140;-51
2023/05/16 06:06:42;;;;;;;10.18;4.40;;;20.70;72.60;;;;;;1924822;74;21108;-49
2023/05/16 06:09:12;;;;;;;8.93;4.90;;;20.80;71.50;;;;;;1924702;74;21080;-52
2023/05/16 06:11:44;;;;;;;6.03;3.72;;;20.90;71.00;;;;;;1924773;74;21003;-50
2023/05/16 06:14:15;;;;;;;6.15;3.50;;;20.90;69.50;;;;;;1924811;74;21124;-50
2023/05/16 06:16:44;;;;;;;12.25;5.37;;;21.00;69.60;;;;;;1924808;74;21034;-50
2023/05/16 06:19:15;;;;;;;12.78;5.92;;;21.00;69.20;;;;;;1924825;74;21076;-51
2023/05/16 06:21:44;;;;;;;13.25;4.72;;;21.10;68.50;;;;;;1924729;74;21069;-51
2023/05/16 06:24:14;;;;;;;7.08;4.58;;;21.20;68.20;;;;;;1924774;74;21115;-49
2023/05/16 06:26:48;;;;;;;13.93;4.10;;;21.20;67.90;;;;;;1924847;74;21018;-51
2023/05/16 06:29:14;;;;;;;11.97;6.05;;;21.30;67.10;;;;;;1924351;74;20991;-50
2023/05/16 06:31:43;;;;;;;15.15;5.67;;;21.40;66.30;;;;;;1924748;74;21100;-49
2023/05/16 06:34:12;;;;;;;8.15;4.28;;;21.40;65.90;;;;;;1924768;74;21149;-51
2023/05/16 06:36:41;;;;;;;8.35;4.33;;;21.40;65.20;;;;;;1913930;74;21109;-49
2023/05/16 06:39:10;;;;;;;8.85;4.12;;;21.40;64.70;;;;;;1905376;75;20987;-51
2023/05/16 06:41:39;;;;;;;7.95;4.08;;;21.40;63.70;;;;;;1905283;75;21036;-50
2023/05/16 06:44:09;;;;;;;6.37;3.40;;;21.40;62.90;;;;;;1905478;75;21003;-49
2023/05/16 06:46:39;;;;;;;9.80;3.83;;;21.40;62.90;;;;;;1905286;75;21125;-52
2023/05/16 06:49:08;;;;;;;9.88;3.62;;;21.50;62.30;;;;;;1905444;75;20992;-50
2023/05/16 06:51:37;;;;;;;8.50;4.33;;;21.50;62.80;;;;;;1905348;75;21007;-50
2023/05/16 06:54:07;;;;;;;9.13;5.15;;;21.60;62.00;;;;;;1905466;75;21039;-49
2023/05/16 06:56:36;;;;;;;6.80;4.00;;;21.70;61.80;;;;;;1905549;75;21027;-49
2023/05/16 06:59:05;;;;;;;8.13;4.28;;;21.70;61.60;;;;;;1905602;75;21097;-50
2023/05/16 07:01:34;;;;;;;10.68;4.15;;;21.80;60.10;;;;;;1905442;75;21032;-49
2023/05/16 07:04:03;;;;;;;13.80;4.30;;;21.80;60.30;;;;;;1905355;74;21438;-50
2023/05/16 07:06:33;;;;;;;7.97;4.47;;;21.90;60.50;;;;;;1905436;75;21075;-49
2023/05/16 07:09:02;;;;;;;10.10;4.20;;;21.90;60.30;;;;;;1905436;75;21177;-51
2023/05/16 07:11:31;;;;;;;9.98;4.35;;;22.00;60.00;;;;;;1905365;75;21004;-50
2023/05/16 07:14:02;;;;;;;13.25;5.00;;;22.10;59.90;;;;;;1905113;74;21511;-51
2023/05/16 07:16:31;;;;;;;10.75;5.08;;;22.20;60.00;;;;;;1905299;75;21422;-49
2023/05/16 07:19:01;;;;;;;10.78;5.28;;;22.20;60.10;;;;;;1899460;75;21150;-66
2023/05/16 07:21:30;;;;;;;8.73;4.83;;;22.30;59.20;;;;;;1890897;75;21020;-68
2023/05/16 07:23:59;;;;;;;11.15;5.50;;;22.30;59.80;;;;;;1886468;75;21025;-65
2023/05/16 07:26:28;;;;;;;9.65;4.20;;;22.30;60.10;;;;;;1898108;75;21032;-61
2023/05/16 07:28:58;;;;;;;8.15;4.10;;;22.30;60.20;;;;;;1899928;75;21021;-64
2023/05/16 07:31:27;;;;;;;6.40;4.53;;;22.30;59.20;;;;;;1874387;75;21009;-72
2023/05/16 07:33:56;;;;;;;8.78;5.05;;;22.30;59.90;;;;;;1876677;75;21100;-70
2023/05/16 07:36:26;;;;;;;6.72;4.70;;;22.40;59.70;;;;;;1872599;75;21111;-65
2023/05/16 07:38:55;;;;;;;6.78;4.42;;;22.40;59.90;;;;;;1881031;75;21076;-72
2023/05/16 07:41:24;;;;;;;8.23;4.10;;;22.50;59.50;;;;;;1880027;75;21633;-65
2023/05/16 07:43:54;;;;;;;24.98;6.40;;;22.60;59.30;;;;;;1886681;75;21060;-61
2023/05/16 07:46:23;;;;;;;9.08;4.20;;;22.60;59.00;;;;;;1895466;75;21040;-64
2023/05/16 07:48:52;;;;;;;9.55;3.92;;;22.70;58.40;;;;;;1886578;74;21147;-68
2023/05/16 07:51:22;;;;;;;8.83;4.72;;;22.80;58.10;;;;;;1888794;75;21078;-66
2023/05/16 07:53:51;;;;;;;7.75;4.72;;;22.90;57.20;;;;;;1889839;75;21028;-69
2023/05/16 07:56:20;;;;;;;7.47;4.15;;;22.90;56.80;;;;;;1885472;75;21076;-62
2023/05/16 07:58:50;;;;;;;10.70;4.65;;;22.90;56.70;;;;;;1872389;77;21048;-63
2023/05/16 08:01:19;;;;;;;7.83;4.37;;;22.90;55.70;;;;;;1885781;75;21128;-65
2023/05/16 08:03:48;;;;;;;7.83;3.58;;;23.00;54.60;;;;;;1889236;75;21019;-63
2023/05/16 08:06:17;;;;;;;7.05;4.10;;;23.00;54.70;;;;;;1889608;75;21460;-62
2023/05/16 08:08:47;;;;;;;3.55;3.25;;;23.10;55.30;;;;;;1886080;75;20983;-68
2023/05/16 08:11:16;;;;;;;10.63;3.62;;;23.10;54.80;;;;;;1889921;75;21082;-68
2023/05/16 08:13:45;;;;;;;5.22;3.12;;;23.20;54.20;;;;;;1887911;75;21185;-67
2023/05/16 08:16:14;;;;;;;4.87;3.45;;;23.20;54.30;;;;;;1886867;75;21015;-65
2023/05/16 08:18:44;;;;;;;4.30;2.98;;;23.30;54.40;;;;;;1888388;75;21008;-67
2023/05/16 08:21:15;;;;;;;6.33;3.12;;;23.30;53.70;;;;;;1893836;75;21133;-68
2023/05/16 08:23:43;;;;;;;6.67;3.20;;;23.40;53.10;;;;;;1885291;75;21608;-67
2023/05/16 08:26:12;;;;;;;3.77;3.08;;;23.30;54.00;;;;;;1886394;75;21665;-65
2023/05/16 08:28:42;;;;;;;7.42;3.40;;;23.40;54.20;;;;;;1889160;75;21128;-64
2023/05/16 08:31:11;;;;;;;7.78;3.35;;;23.30;54.50;;;;;;1898881;75;21118;-63
2023/05/16 08:33:40;;;;;;;4.65;3.50;;;23.30;53.20;;;;;;1904685;75;21011;-65
2023/05/16 08:36:11;;;;;;;7.00;2.83;;;23.30;53.70;;;;;;1899613;75;21076;-68
2023/05/16 08:38:40;;;;;;;8.20;3.42;;;23.30;54.10;;;;;;1893408;75;21035;-68
2023/05/16 08:41:09;;;;;;;8.88;3.87;;;23.40;52.50;;;;;;1894952;75;21056;-64
2023/05/16 08:43:38;;;;;;;7.20;2.83;;;23.40;53.10;;;;;;1881821;76;21087;-64
2023/05/16 08:46:10;;;;;;;4.60;2.90;;;23.40;53.40;;;;;;1881807;76;21064;-65
2023/05/16 08:48:42;;;;;;;7.03;3.10;;;23.50;53.90;;;;;;1913116;75;21094;-67
2023/05/16 08:51:12;;;;;;;4.12;2.30;;;23.50;53.60;;;;;;1906000;75;21085;-64
2023/05/16 08:53:44;;;;;;;4.03;2.90;;;23.50;52.80;;;;;;1881828;76;21143;-62
2023/05/16 08:56:14;;;;;;;16.93;5.25;;;23.60;53.30;;;;;;1881783;76;21098;-62
2023/05/16 08:58:43;;;;;;;5.75;3.00;;;23.60;52.30;;;;;;1906479;75;21140;-68
